sensor_id;sensor_type;location;lat;lon;timestamp;temperature;humidity
8463;DHT22;4268;52.506;13.462;2024-01-30T00:01:00;3.30;99.90
8463;DHT22;4268;52.506;13.462;2024-01-30T00:03:26;3.30;99.90
8463;DHT22;4268;52.506;13.462;2024-01-30T00:05:52;3.30;99.90
8463;DHT22;4268;52.506;13.462;2024-01-30T00:08:17;3.30;99.90
8463;DHT22;4268;52.506;13.462;2024-01-30T00:10:43;3.30;99.90
8463;DHT22;4268;52.506;13.462;2024-01-30T00:13:08;3.20;99.90
8463;DHT22;4268;52.506;13.462;2024-01-30T00:15:34;3.20;99.90
8463;DHT22;4268;52.506;13.462;2024-01-30T00:18:00;3.20;99.90
8463;DHT22;4268;52.506;13.462;2024-01-30T00:20:26;3.20;99.90
8463;DHT22;4268;52.506;13.462;2024-01-30T00:22:52;3.10;99.90
8463;DHT22;4268;52.506;13.462;2024-01-30T00:25:17;3.10;99.90
8463;DHT22;4268;52.506;13.462;2024-01-30T00:27:43;3.10;99.90
8463;DHT22;4268;52.506;13.462;2024-01-30T00:30:10;3.10;99.90
8463;DHT22;4268;52.506;13.462;2024-01-30T00:32:35;3.00;99.90
8463;DHT22;4268;52.506;13.462;2024-01-30T00:35:01;3.00;99.90
8463;DHT22;4268;52.506;13.462;2024-01-30T00:37:26;3.00;99.90
8463;DHT22;4268;52.506;13.462;2024-01-30T00:39:52;2.90;99.90
8463;DHT22;4268;52.506;13.462;2024-01-30T00:42:17;2.90;99.90
8463;DHT22;4268;52.506;13.462;2024-01-30T00:44:43;2.90;99.90
8463;DHT22;4268;52.506;13.462;2024-01-30T00:47:08;2.90;99.90
8463;DHT22;4268;52.506;13.462;2024-01-30T00:49:34;2.90;99.90
8463;DHT22;4268;52.506;13.462;2024-01-30T00:51:59;2.90;99.90
8463;DHT22;4268;52.506;13.462;2024-01-30T00:54:25;2.90;99.90
8463;DHT22;4268;52.506;13.462;2024-01-30T00:56:51;2.80;99.90
8463;DHT22;4268;52.506;13.462;2024-01-30T00:59:16;2.80;99.90
8463;DHT22;4268;52.506;13.462;2024-01-30T01:01:42;2.80;99.90
8463;DHT22;4268;52.506;13.462;2024-01-30T01:04:07;2.80;99.90
8463;DHT22;4268;52.506;13.462;2024-01-30T01:06:33;2.80;99.90
8463;DHT22;4268;52.506;13.462;2024-01-30T01:08:58;2.80;99.90
8463;DHT22;4268;52.506;13.462;2024-01-30T01:11:24;2.80;99.90
8463;DHT22;4268;52.506;13.462;2024-01-30T01:13:49;2.80;99.90
8463;DHT22;4268;52.506;13.462;2024-01-30T01:16:15;2.80;99.90
8463;DHT22;4268;52.506;13.462;2024-01-30T01:18:40;2.80;99.90
8463;DHT22;4268;52.506;13.462;2024-01-30T01:21:06;2.70;99.90
8463;DHT22;4268;52.506;13.462;2024-01-30T01:23:31;2.70;99.90
8463;DHT22;4268;52.506;13.462;2024-01-30T01:25:57;2.70;99.90
8463;DHT22;4268;52.506;13.462;2024-01-30T01:28:25;2.70;99.90
8463;DHT22;4268;52.506;13.462;2024-01-30T01:30:50;2.70;99.90
8463;DHT22;4268;52.506;13.462;2024-01-30T01:33:16;2.70;99.90
8463;DHT22;4268;52.506;13.462;2024-01-30T01:35:42;2.60;99.90
8463;DHT22;4268;52.506;13.462;2024-01-30T01:38:08;2.60;99.90
8463;DHT22;4268;52.506;13.462;2024-01-30T01:40:34;2.60;99.90
8463;DHT22;4268;52.506;13.462;2024-01-30T01:43:03;2.60;99.90
8463;DHT22;4268;52.506;13.462;2024-01-30T01:45:28;2.60;99.90
8463;DHT22;4268;52.506;13.462;2024-01-30T01:47:54;2.50;99.90
8463;DHT22;4268;52.506;13.462;2024-01-30T01:50:21;2.50;99.90
8463;DHT22;4268;52.506;13.462;2024-01-30T01:52:50;2.50;99.90
8463;DHT22;4268;52.506;13.462;2024-01-30T01:55:16;2.50;99.90
8463;DHT22;4268;52.506;13.462;2024-01-30T01:57:47;2.50;99.90
8463;DHT22;4268;52.506;13.462;2024-01-30T02:00:13;2.50;99.90
8463;DHT22;4268;52.506;13.462;2024-01-30T02:02:39;2.50;99.90
8463;DHT22;4268;52.506;13.462;2024-01-30T02:05:05;2.50;99.90
8463;DHT22;4268;52.506;13.462;2024-01-30T02:07:31;2.50;99.90
8463;DHT22;4268;52.506;13.462;2024-01-30T02:09:57;2.40;99.90
8463;DHT22;4268;52.506;13.462;2024-01-30T02:12:22;2.40;99.90
8463;DHT22;4268;52.506;13.462;2024-01-30T02:14:48;2.40;99.90
8463;DHT22;4268;52.506;13.462;2024-01-30T02:17:15;2.40;99.90
8463;DHT22;4268;52.506;13.462;2024-01-30T02:19:41;2.40;99.90
8463;DHT22;4268;52.506;13.462;2024-01-30T02:22:07;2.40;99.90
8463;DHT22;4268;52.506;13.462;2024-01-30T02:24:33;2.40;99.90
8463;DHT22;4268;52.506;13.462;2024-01-30T02:26:58;2.40;99.90
8463;DHT22;4268;52.506;13.462;2024-01-30T02:29:24;2.30;99.90
8463;DHT22;4268;52.506;13.462;2024-01-30T02:31:50;2.30;99.90
8463;DHT22;4268;52.506;13.462;2024-01-30T02:34:15;2.40;99.90
8463;DHT22;4268;52.506;13.462;2024-01-30T02:36:44;2.40;99.90
8463;DHT22;4268;52.506;13.462;2024-01-30T02:39:10;2.40;99.90
8463;DHT22;4268;52.506;13.462;2024-01-30T02:41:35;2.40;99.90
8463;DHT22;4268;52.506;13.462;2024-01-30T02:44:02;2.50;99.90
8463;DHT22;4268;52.506;13.462;2024-01-30T02:46:27;2.50;99.90
8463;DHT22;4268;52.506;13.462;2024-01-30T02:48:53;2.40;99.90
8463;DHT22;4268;52.506;13.462;2024-01-30T02:51:18;2.40;99.90
8463;DHT22;4268;52.506;13.462;2024-01-30T02:53:44;2.40;99.90
8463;DHT22;4268;52.506;13.462;2024-01-30T02:56:09;2.40;99.90
8463;DHT22;4268;52.506;13.462;2024-01-30T02:58:36;2.40;99.90
8463;DHT22;4268;52.506;13.462;2024-01-30T03:01:02;2.40;99.90
8463;DHT22;4268;52.506;13.462;2024-01-30T03:03:28;2.40;99.90
8463;DHT22;4268;52.506;13.462;2024-01-30T03:05:53;2.40;99.90
8463;DHT22;4268;52.506;13.462;2024-01-30T03:08:19;2.40;99.90
8463;DHT22;4268;52.506;13.462;2024-01-30T03:10:45;2.40;99.90
8463;DHT22;4268;52.506;13.462;2024-01-30T03:13:11;2.40;99.90
8463;DHT22;4268;52.506;13.462;2024-01-30T03:15:36;2.40;99.90
8463;DHT22;4268;52.506;13.462;2024-01-30T03:18:02;2.40;99.90
8463;DHT22;4268;52.506;13.462;2024-01-30T03:20:29;2.40;99.90
8463;DHT22;4268;52.506;13.462;2024-01-30T03:22:55;2.40;99.90
8463;DHT22;4268;52.506;13.462;2024-01-30T03:25:20;2.30;99.90
8463;DHT22;4268;52.506;13.462;2024-01-30T03:27:46;2.30;99.90
8463;DHT22;4268;52.506;13.462;2024-01-30T03:30:12;2.30;99.90
8463;DHT22;4268;52.506;13.462;2024-01-30T03:32:37;2.10;99.90
8463;DHT22;4268;52.506;13.462;2024-01-30T03:35:03;2.30;99.90
8463;DHT22;4268;52.506;13.462;2024-01-30T03:37:29;2.30;99.90
8463;DHT22;4268;52.506;13.462;2024-01-30T03:39:55;2.30;99.90
8463;DHT22;4268;52.506;13.462;2024-01-30T03:42:21;2.30;99.90
8463;DHT22;4268;52.506;13.462;2024-01-30T03:44:48;2.30;99.90
8463;DHT22;4268;52.506;13.462;2024-01-30T03:47:13;2.30;99.90
8463;DHT22;4268;52.506;13.462;2024-01-30T03:49:39;2.30;99.90
8463;DHT22;4268;52.506;13.462;2024-01-30T03:52:05;2.30;99.90
8463;DHT22;4268;52.506;13.462;2024-01-30T03:54:30;2.30;99.90
8463;DHT22;4268;52.506;13.462;2024-01-30T03:56:56;2.30;99.90
8463;DHT22;4268;52.506;13.462;2024-01-30T03:59:21;2.30;99.90
8463;DHT22;4268;52.506;13.462;2024-01-30T04:01:50;2.30;99.90
8463;DHT22;4268;52.506;13.462;2024-01-30T04:04:17;2.30;99.90
8463;DHT22;4268;52.506;13.462;2024-01-30T04:06:42;2.30;99.90
8463;DHT22;4268;52.506;13.462;2024-01-30T04:09:08;2.30;99.90
8463;DHT22;4268;52.506;13.462;2024-01-30T04:11:33;2.20;99.90
8463;DHT22;4268;52.506;13.462;2024-01-30T04:13:59;2.30;99.90
8463;DHT22;4268;52.506;13.462;2024-01-30T04:16:24;2.30;99.90
8463;DHT22;4268;52.506;13.462;2024-01-30T04:18:51;2.20;99.90
8463;DHT22;4268;52.506;13.462;2024-01-30T04:21:17;2.20;99.90
8463;DHT22;4268;52.506;13.462;2024-01-30T04:23:42;2.20;99.90
8463;DHT22;4268;52.506;13.462;2024-01-30T04:26:08;2.20;99.90
8463;DHT22;4268;52.506;13.462;2024-01-30T04:28:34;2.20;99.90
8463;DHT22;4268;52.506;13.462;2024-01-30T04:30:59;2.20;99.90
8463;DHT22;4268;52.506;13.462;2024-01-30T04:33:24;2.20;99.90
8463;DHT22;4268;52.506;13.462;2024-01-30T04:35:50;2.30;99.90
8463;DHT22;4268;52.506;13.462;2024-01-30T04:38:15;2.30;99.90
8463;DHT22;4268;52.506;13.462;2024-01-30T04:40:41;2.30;99.90
8463;DHT22;4268;52.506;13.462;2024-01-30T04:43:07;2.30;99.90
8463;DHT22;4268;52.506;13.462;2024-01-30T04:45:32;2.40;99.90
8463;DHT22;4268;52.506;13.462;2024-01-30T04:47:58;2.40;99.90
8463;DHT22;4268;52.506;13.462;2024-01-30T04:50:23;2.40;99.90
8463;DHT22;4268;52.506;13.462;2024-01-30T04:52:49;2.40;99.90
8463;DHT22;4268;52.506;13.462;2024-01-30T04:55:15;2.40;99.90
8463;DHT22;4268;52.506;13.462;2024-01-30T04:57:40;2.40;99.90
8463;DHT22;4268;52.506;13.462;2024-01-30T05:00:06;2.30;99.90
8463;DHT22;4268;52.506;13.462;2024-01-30T05:02:32;2.30;99.90
8463;DHT22;4268;52.506;13.462;2024-01-30T05:04:57;2.30;99.90
8463;DHT22;4268;52.506;13.462;2024-01-30T05:07:24;2.30;99.90
8463;DHT22;4268;52.506;13.462;2024-01-30T05:09:51;2.30;99.90
8463;DHT22;4268;52.506;13.462;2024-01-30T05:12:16;2.30;99.90
8463;DHT22;4268;52.506;13.462;2024-01-30T05:14:42;2.30;99.90
8463;DHT22;4268;52.506;13.462;2024-01-30T05:17:07;2.20;99.90
8463;DHT22;4268;52.506;13.462;2024-01-30T05:19:38;2.20;99.90
8463;DHT22;4268;52.506;13.462;2024-01-30T05:22:03;2.30;99.90
8463;DHT22;4268;52.506;13.462;2024-01-30T05:24:29;2.20;99.90
8463;DHT22;4268;52.506;13.462;2024-01-30T05:26:54;2.20;99.90
8463;DHT22;4268;52.506;13.462;2024-01-30T05:29:20;2.20;99.90
8463;DHT22;4268;52.506;13.462;2024-01-30T05:31:46;2.30;99.90
8463;DHT22;4268;52.506;13.462;2024-01-30T05:34:11;2.20;99.90
8463;DHT22;4268;52.506;13.462;2024-01-30T05:36:37;2.20;99.90
8463;DHT22;4268;52.506;13.462;2024-01-30T05:39:02;2.30;99.90
8463;DHT22;4268;52.506;13.462;2024-01-30T05:41:28;2.30;99.90
8463;DHT22;4268;52.506;13.462;2024-01-30T05:43:54;2.20;99.90
8463;DHT22;4268;52.506;13.462;2024-01-30T05:46:19;2.20;99.90
8463;DHT22;4268;52.506;13.462;2024-01-30T05:48:44;2.20;99.90
8463;DHT22;4268;52.506;13.462;2024-01-30T05:51:10;2.10;99.90
8463;DHT22;4268;52.506;13.462;2024-01-30T05:53:36;2.10;99.90
8463;DHT22;4268;52.506;13.462;2024-01-30T05:56:02;2.20;99.90
8463;DHT22;4268;52.506;13.462;2024-01-30T05:58:27;2.20;99.90
8463;DHT22;4268;52.506;13.462;2024-01-30T06:00:53;2.20;99.90
8463;DHT22;4268;52.506;13.462;2024-01-30T06:03:18;2.20;99.90
8463;DHT22;4268;52.506;13.462;2024-01-30T06:05:44;2.20;99.90
8463;DHT22;4268;52.506;13.462;2024-01-30T06:08:09;2.10;99.90
8463;DHT22;4268;52.506;13.462;2024-01-30T06:10:35;2.10;99.90
8463;DHT22;4268;52.506;13.462;2024-01-30T06:13:01;2.20;99.90
8463;DHT22;4268;52.506;13.462;2024-01-30T06:15:27;2.10;99.90
8463;DHT22;4268;52.506;13.462;2024-01-30T06:17:55;2.20;99.90
8463;DHT22;4268;52.506;13.462;2024-01-30T06:20:20;2.20;99.90
8463;DHT22;4268;52.506;13.462;2024-01-30T06:22:46;2.20;99.90
8463;DHT22;4268;52.506;13.462;2024-01-30T06:25:11;2.20;99.90
8463;DHT22;4268;52.506;13.462;2024-01-30T06:27:37;2.20;99.90
8463;DHT22;4268;52.506;13.462;2024-01-30T06:30:04;2.20;99.90
8463;DHT22;4268;52.506;13.462;2024-01-30T06:32:30;2.20;99.90
8463;DHT22;4268;52.506;13.462;2024-01-30T06:35:02;2.20;99.90
8463;DHT22;4268;52.506;13.462;2024-01-30T06:37:28;2.20;99.90
8463;DHT22;4268;52.506;13.462;2024-01-30T06:39:53;2.20;99.90
8463;DHT22;4268;52.506;13.462;2024-01-30T06:42:19;2.20;99.90
8463;DHT22;4268;52.506;13.462;2024-01-30T06:44:44;2.20;99.90
8463;DHT22;4268;52.506;13.462;2024-01-30T06:47:13;2.20;99.90
8463;DHT22;4268;52.506;13.462;2024-01-30T06:49:39;2.20;99.90
8463;DHT22;4268;52.506;13.462;2024-01-30T06:52:07;2.20;99.90
8463;DHT22;4268;52.506;13.462;2024-01-30T06:54:33;2.20;99.90
8463;DHT22;4268;52.506;13.462;2024-01-30T06:56:58;2.20;99.90
8463;DHT22;4268;52.506;13.462;2024-01-30T06:59:24;2.20;99.90
8463;DHT22;4268;52.506;13.462;2024-01-30T07:01:50;2.20;99.90
8463;DHT22;4268;52.506;13.462;2024-01-30T07:04:15;2.30;99.90
8463;DHT22;4268;52.506;13.462;2024-01-30T07:06:41;2.30;99.90
8463;DHT22;4268;52.506;13.462;2024-01-30T07:09:07;2.30;99.90
8463;DHT22;4268;52.506;13.462;2024-01-30T07:11:33;2.30;99.90
8463;DHT22;4268;52.506;13.462;2024-01-30T07:13:59;2.40;99.90
8463;DHT22;4268;52.506;13.462;2024-01-30T07:16:24;2.40;99.90
8463;DHT22;4268;52.506;13.462;2024-01-30T07:18:50;2.40;99.90
8463;DHT22;4268;52.506;13.462;2024-01-30T07:21:16;2.40;99.90
8463;DHT22;4268;52.506;13.462;2024-01-30T07:23:42;2.50;99.90
8463;DHT22;4268;52.506;13.462;2024-01-30T07:26:08;2.60;99.90
8463;DHT22;4268;52.506;13.462;2024-01-30T07:28:34;2.60;99.90
8463;DHT22;4268;52.506;13.462;2024-01-30T07:31:00;2.60;99.90
8463;DHT22;4268;52.506;13.462;2024-01-30T07:33:26;2.70;99.90
8463;DHT22;4268;52.506;13.462;2024-01-30T07:35:55;2.70;99.90
8463;DHT22;4268;52.506;13.462;2024-01-30T07:38:20;2.70;99.90
8463;DHT22;4268;52.506;13.462;2024-01-30T07:40:46;2.80;99.90
8463;DHT22;4268;52.506;13.462;2024-01-30T07:43:11;2.90;99.90
8463;DHT22;4268;52.506;13.462;2024-01-30T07:45:37;3.00;99.90
8463;DHT22;4268;52.506;13.462;2024-01-30T07:48:05;3.00;99.90
8463;DHT22;4268;52.506;13.462;2024-01-30T07:50:30;3.10;99.90
8463;DHT22;4268;52.506;13.462;2024-01-30T07:52:56;3.10;99.90
8463;DHT22;4268;52.506;13.462;2024-01-30T07:55:22;3.10;99.90
8463;DHT22;4268;52.506;13.462;2024-01-30T07:57:57;3.20;99.90
8463;DHT22;4268;52.506;13.462;2024-01-30T08:00:22;3.20;99.90
8463;DHT22;4268;52.506;13.462;2024-01-30T08:02:48;3.20;99.90
8463;DHT22;4268;52.506;13.462;2024-01-30T08:05:14;3.30;99.90
8463;DHT22;4268;52.506;13.462;2024-01-30T08:07:41;3.30;99.90
8463;DHT22;4268;52.506;13.462;2024-01-30T08:10:08;3.30;99.90
8463;DHT22;4268;52.506;13.462;2024-01-30T08:12:33;3.40;99.90
8463;DHT22;4268;52.506;13.462;2024-01-30T08:14:59;3.40;99.90
8463;DHT22;4268;52.506;13.462;2024-01-30T08:17:25;3.40;99.90
8463;DHT22;4268;52.506;13.462;2024-01-30T08:19:50;3.40;99.90
8463;DHT22;4268;52.506;13.462;2024-01-30T08:22:16;3.50;99.90
8463;DHT22;4268;52.506;13.462;2024-01-30T08:24:41;3.50;99.90
8463;DHT22;4268;52.506;13.462;2024-01-30T08:27:07;3.60;99.90
8463;DHT22;4268;52.506;13.462;2024-01-30T08:29:35;3.60;99.90
8463;DHT22;4268;52.506;13.462;2024-01-30T08:32:01;3.60;99.90
8463;DHT22;4268;52.506;13.462;2024-01-30T08:34:26;3.70;99.90
8463;DHT22;4268;52.506;13.462;2024-01-30T08:36:52;3.80;99.90
8463;DHT22;4268;52.506;13.462;2024-01-30T08:39:18;3.80;99.90
8463;DHT22;4268;52.506;13.462;2024-01-30T08:41:43;3.80;99.90
8463;DHT22;4268;52.506;13.462;2024-01-30T08:44:09;3.90;99.90
8463;DHT22;4268;52.506;13.462;2024-01-30T08:46:36;4.00;99.90
8463;DHT22;4268;52.506;13.462;2024-01-30T08:49:02;4.10;99.90
8463;DHT22;4268;52.506;13.462;2024-01-30T08:51:28;4.10;99.90
8463;DHT22;4268;52.506;13.462;2024-01-30T08:53:53;4.20;99.90
8463;DHT22;4268;52.506;13.462;2024-01-30T08:56:19;4.30;99.90
8463;DHT22;4268;52.506;13.462;2024-01-30T08:58:45;4.40;99.90
8463;DHT22;4268;52.506;13.462;2024-01-30T09:01:10;4.50;99.90
8463;DHT22;4268;52.506;13.462;2024-01-30T09:03:36;4.60;99.90
8463;DHT22;4268;52.506;13.462;2024-01-30T09:06:08;4.70;99.90
8463;DHT22;4268;52.506;13.462;2024-01-30T09:08:34;4.90;99.90
8463;DHT22;4268;52.506;13.462;2024-01-30T09:10:59;5.00;99.90
8463;DHT22;4268;52.506;13.462;2024-01-30T09:13:25;5.10;99.90
8463;DHT22;4268;52.506;13.462;2024-01-30T09:15:50;5.20;99.90
8463;DHT22;4268;52.506;13.462;2024-01-30T09:18:16;5.30;99.90
8463;DHT22;4268;52.506;13.462;2024-01-30T09:20:41;5.40;99.90
8463;DHT22;4268;52.506;13.462;2024-01-30T09:23:07;5.50;99.90
8463;DHT22;4268;52.506;13.462;2024-01-30T09:25:33;5.50;99.90
8463;DHT22;4268;52.506;13.462;2024-01-30T09:27:59;5.50;99.90
8463;DHT22;4268;52.506;13.462;2024-01-30T09:30:25;5.60;99.90
8463;DHT22;4268;52.506;13.462;2024-01-30T09:32:50;5.60;99.90
8463;DHT22;4268;52.506;13.462;2024-01-30T09:35:16;5.60;99.90
8463;DHT22;4268;52.506;13.462;2024-01-30T09:37:41;5.70;99.90
8463;DHT22;4268;52.506;13.462;2024-01-30T09:40:07;5.70;99.90
8463;DHT22;4268;52.506;13.462;2024-01-30T09:42:33;5.70;99.90
8463;DHT22;4268;52.506;13.462;2024-01-30T09:45:01;5.70;99.90
8463;DHT22;4268;52.506;13.462;2024-01-30T09:47:48;5.80;99.90
8463;DHT22;4268;52.506;13.462;2024-01-30T09:50:14;5.80;99.90
8463;DHT22;4268;52.506;13.462;2024-01-30T09:52:40;5.90;99.90
8463;DHT22;4268;52.506;13.462;2024-01-30T09:55:07;5.80;99.90
8463;DHT22;4268;52.506;13.462;2024-01-30T09:57:33;5.90;99.90
8463;DHT22;4268;52.506;13.462;2024-01-30T09:59:59;5.90;99.90
8463;DHT22;4268;52.506;13.462;2024-01-30T10:02:24;6.00;99.90
8463;DHT22;4268;52.506;13.462;2024-01-30T10:04:51;6.00;99.90
8463;DHT22;4268;52.506;13.462;2024-01-30T10:07:18;6.10;99.90
8463;DHT22;4268;52.506;13.462;2024-01-30T10:09:44;6.20;99.90
8463;DHT22;4268;52.506;13.462;2024-01-30T10:12:10;6.30;99.90
8463;DHT22;4268;52.506;13.462;2024-01-30T10:14:39;6.30;99.90
8463;DHT22;4268;52.506;13.462;2024-01-30T10:17:05;6.40;99.90
8463;DHT22;4268;52.506;13.462;2024-01-30T10:19:31;6.50;99.90
8463;DHT22;4268;52.506;13.462;2024-01-30T10:21:57;6.50;99.90
8463;DHT22;4268;52.506;13.462;2024-01-30T10:24:25;6.50;99.90
8463;DHT22;4268;52.506;13.462;2024-01-30T10:26:51;6.60;99.90
8463;DHT22;4268;52.506;13.462;2024-01-30T10:29:17;6.70;99.90
8463;DHT22;4268;52.506;13.462;2024-01-30T10:31:42;6.70;99.90
8463;DHT22;4268;52.506;13.462;2024-01-30T10:34:08;6.70;99.90
8463;DHT22;4268;52.506;13.462;2024-01-30T10:36:39;6.80;99.90
8463;DHT22;4268;52.506;13.462;2024-01-30T10:39:06;6.80;99.90
8463;DHT22;4268;52.506;13.462;2024-01-30T10:41:39;6.80;99.90
8463;DHT22;4268;52.506;13.462;2024-01-30T10:44:11;6.80;99.90
8463;DHT22;4268;52.506;13.462;2024-01-30T10:46:42;6.80;99.90
8463;DHT22;4268;52.506;13.462;2024-01-30T10:49:09;6.80;99.90
8463;DHT22;4268;52.506;13.462;2024-01-30T10:51:37;6.90;99.90
8463;DHT22;4268;52.506;13.462;2024-01-30T10:54:04;7.00;99.90
8463;DHT22;4268;52.506;13.462;2024-01-30T10:56:32;7.00;99.90
8463;DHT22;4268;52.506;13.462;2024-01-30T10:58:59;7.00;99.90
8463;DHT22;4268;52.506;13.462;2024-01-30T11:01:25;7.10;99.90
8463;DHT22;4268;52.506;13.462;2024-01-30T11:03:53;7.20;99.90
8463;DHT22;4268;52.506;13.462;2024-01-30T11:06:22;7.20;99.90
8463;DHT22;4268;52.506;13.462;2024-01-30T11:09:04;7.20;99.30
8463;DHT22;4268;52.506;13.462;2024-01-30T11:11:51;7.30;99.00
8463;DHT22;4268;52.506;13.462;2024-01-30T11:14:23;7.30;98.60
8463;DHT22;4268;52.506;13.462;2024-01-30T11:16:49;7.40;98.60
8463;DHT22;4268;52.506;13.462;2024-01-30T11:19:15;7.40;98.40
8463;DHT22;4268;52.506;13.462;2024-01-30T11:21:41;7.40;98.30
8463;DHT22;4268;52.506;13.462;2024-01-30T11:24:08;7.50;98.30
8463;DHT22;4268;52.506;13.462;2024-01-30T11:26:33;7.50;98.30
8463;DHT22;4268;52.506;13.462;2024-01-30T11:29:03;7.50;98.20
8463;DHT22;4268;52.506;13.462;2024-01-30T11:31:28;7.40;98.20
8463;DHT22;4268;52.506;13.462;2024-01-30T11:33:55;7.50;98.30
8463;DHT22;4268;52.506;13.462;2024-01-30T11:36:25;7.50;98.30
8463;DHT22;4268;52.506;13.462;2024-01-30T11:38:51;7.50;98.50
8463;DHT22;4268;52.506;13.462;2024-01-30T11:41:17;7.50;98.30
8463;DHT22;4268;52.506;13.462;2024-01-30T11:43:50;7.60;98.20
8463;DHT22;4268;52.506;13.462;2024-01-30T11:46:16;7.60;98.10
8463;DHT22;4268;52.506;13.462;2024-01-30T11:48:41;7.70;98.10
8463;DHT22;4268;52.506;13.462;2024-01-30T11:51:07;7.70;98.00
8463;DHT22;4268;52.506;13.462;2024-01-30T11:53:32;7.70;97.90
8463;DHT22;4268;52.506;13.462;2024-01-30T11:55:58;7.80;97.90
8463;DHT22;4268;52.506;13.462;2024-01-30T11:58:25;7.80;97.80
8463;DHT22;4268;52.506;13.462;2024-01-30T12:00:57;7.90;98.00
8463;DHT22;4268;52.506;13.462;2024-01-30T12:03:23;8.00;97.90
8463;DHT22;4268;52.506;13.462;2024-01-30T12:05:55;7.90;97.60
8463;DHT22;4268;52.506;13.462;2024-01-30T12:08:21;8.00;97.80
8463;DHT22;4268;52.506;13.462;2024-01-30T12:10:58;8.10;97.70
8463;DHT22;4268;52.506;13.462;2024-01-30T12:13:25;8.10;97.40
8463;DHT22;4268;52.506;13.462;2024-01-30T12:15:51;8.10;97.50
8463;DHT22;4268;52.506;13.462;2024-01-30T12:18:19;8.20;97.50
8463;DHT22;4268;52.506;13.462;2024-01-30T12:20:45;8.40;97.60
8463;DHT22;4268;52.506;13.462;2024-01-30T12:23:12;8.30;97.30
8463;DHT22;4268;52.506;13.462;2024-01-30T12:25:38;8.30;97.50
8463;DHT22;4268;52.506;13.462;2024-01-30T12:28:03;8.30;97.60
8463;DHT22;4268;52.506;13.462;2024-01-30T12:30:29;8.30;97.70
8463;DHT22;4268;52.506;13.462;2024-01-30T12:32:55;8.30;97.70
8463;DHT22;4268;52.506;13.462;2024-01-30T12:35:21;8.20;97.70
8463;DHT22;4268;52.506;13.462;2024-01-30T12:37:48;8.20;97.80
8463;DHT22;4268;52.506;13.462;2024-01-30T12:40:14;8.10;98.00
8463;DHT22;4268;52.506;13.462;2024-01-30T12:42:41;8.00;98.10
8463;DHT22;4268;52.506;13.462;2024-01-30T12:45:08;8.00;98.20
8463;DHT22;4268;52.506;13.462;2024-01-30T12:47:34;8.10;98.40
8463;DHT22;4268;52.506;13.462;2024-01-30T12:49:59;8.10;98.50
8463;DHT22;4268;52.506;13.462;2024-01-30T12:52:25;7.70;98.40
8463;DHT22;4268;52.506;13.462;2024-01-30T12:54:51;8.10;98.50
8463;DHT22;4268;52.506;13.462;2024-01-30T12:57:17;8.10;98.90
8463;DHT22;4268;52.506;13.462;2024-01-30T12:59:44;8.10;98.70
8463;DHT22;4268;52.506;13.462;2024-01-30T13:02:11;8.10;98.80
8463;DHT22;4268;52.506;13.462;2024-01-30T13:04:37;8.10;98.80
8463;DHT22;4268;52.506;13.462;2024-01-30T13:07:03;8.10;98.90
8463;DHT22;4268;52.506;13.462;2024-01-30T13:09:30;8.10;99.10
8463;DHT22;4268;52.506;13.462;2024-01-30T13:11:57;8.10;99.10
8463;DHT22;4268;52.506;13.462;2024-01-30T13:14:22;8.20;99.20
8463;DHT22;4268;52.506;13.462;2024-01-30T13:16:49;8.20;99.20
8463;DHT22;4268;52.506;13.462;2024-01-30T13:19:14;8.20;99.40
8463;DHT22;4268;52.506;13.462;2024-01-30T13:21:40;8.20;99.40
8463;DHT22;4268;52.506;13.462;2024-01-30T13:24:06;8.20;99.40
8463;DHT22;4268;52.506;13.462;2024-01-30T13:26:32;8.20;99.60
8463;DHT22;4268;52.506;13.462;2024-01-30T13:28:58;8.30;99.60
8463;DHT22;4268;52.506;13.462;2024-01-30T13:31:23;8.30;99.60
8463;DHT22;4268;52.506;13.462;2024-01-30T13:33:49;8.30;99.70
8463;DHT22;4268;52.506;13.462;2024-01-30T13:36:14;8.30;99.80
8463;DHT22;4268;52.506;13.462;2024-01-30T13:38:40;8.30;99.80
8463;DHT22;4268;52.506;13.462;2024-01-30T13:41:06;8.30;99.90
8463;DHT22;4268;52.506;13.462;2024-01-30T13:43:31;8.30;99.90
8463;DHT22;4268;52.506;13.462;2024-01-30T13:45:57;8.40;99.90
8463;DHT22;4268;52.506;13.462;2024-01-30T13:48:23;8.40;99.90
8463;DHT22;4268;52.506;13.462;2024-01-30T13:50:48;8.50;99.90
8463;DHT22;4268;52.506;13.462;2024-01-30T13:53:14;8.50;99.90
8463;DHT22;4268;52.506;13.462;2024-01-30T13:55:39;8.50;99.90
8463;DHT22;4268;52.506;13.462;2024-01-30T13:58:05;8.50;99.90
8463;DHT22;4268;52.506;13.462;2024-01-30T14:00:32;8.50;99.90
8463;DHT22;4268;52.506;13.462;2024-01-30T14:02:57;8.50;99.90
8463;DHT22;4268;52.506;13.462;2024-01-30T14:05:24;8.50;99.90
8463;DHT22;4268;52.506;13.462;2024-01-30T14:07:51;8.50;99.90
8463;DHT22;4268;52.506;13.462;2024-01-30T14:10:17;8.50;99.90
8463;DHT22;4268;52.506;13.462;2024-01-30T14:12:43;8.50;99.90
8463;DHT22;4268;52.506;13.462;2024-01-30T14:15:09;8.50;99.90
8463;DHT22;4268;52.506;13.462;2024-01-30T14:17:36;8.50;99.90
8463;DHT22;4268;52.506;13.462;2024-01-30T14:20:03;8.50;99.90
8463;DHT22;4268;52.506;13.462;2024-01-30T14:22:29;8.50;99.90
8463;DHT22;4268;52.506;13.462;2024-01-30T14:24:55;8.50;99.90
8463;DHT22;4268;52.506;13.462;2024-01-30T14:27:21;8.40;99.90
8463;DHT22;4268;52.506;13.462;2024-01-30T14:29:47;8.50;99.90
8463;DHT22;4268;52.506;13.462;2024-01-30T14:32:12;8.40;99.90
8463;DHT22;4268;52.506;13.462;2024-01-30T14:34:38;8.40;99.90
8463;DHT22;4268;52.506;13.462;2024-01-30T14:37:04;8.40;99.90
8463;DHT22;4268;52.506;13.462;2024-01-30T14:39:30;8.50;99.90
8463;DHT22;4268;52.506;13.462;2024-01-30T14:41:56;8.40;99.90
8463;DHT22;4268;52.506;13.462;2024-01-30T14:44:21;8.50;99.90
8463;DHT22;4268;52.506;13.462;2024-01-30T14:46:48;8.50;99.90
8463;DHT22;4268;52.506;13.462;2024-01-30T14:49:13;8.50;99.90
8463;DHT22;4268;52.506;13.462;2024-01-30T14:51:41;8.40;99.90
8463;DHT22;4268;52.506;13.462;2024-01-30T14:54:06;8.40;99.90
8463;DHT22;4268;52.506;13.462;2024-01-30T14:56:32;8.40;99.90
8463;DHT22;4268;52.506;13.462;2024-01-30T14:58:58;8.40;99.90
8463;DHT22;4268;52.506;13.462;2024-01-30T15:01:23;8.40;99.90
8463;DHT22;4268;52.506;13.462;2024-01-30T15:03:49;8.40;99.90
8463;DHT22;4268;52.506;13.462;2024-01-30T15:06:17;8.40;99.90
8463;DHT22;4268;52.506;13.462;2024-01-30T15:08:43;8.40;99.90
8463;DHT22;4268;52.506;13.462;2024-01-30T15:11:09;8.30;99.90
8463;DHT22;4268;52.506;13.462;2024-01-30T15:13:34;8.30;99.90
8463;DHT22;4268;52.506;13.462;2024-01-30T15:16:00;8.30;99.90
8463;DHT22;4268;52.506;13.462;2024-01-30T15:18:28;8.30;99.90
8463;DHT22;4268;52.506;13.462;2024-01-30T15:20:54;8.30;99.90
8463;DHT22;4268;52.506;13.462;2024-01-30T15:23:19;8.20;99.90
8463;DHT22;4268;52.506;13.462;2024-01-30T15:25:45;8.10;99.90
8463;DHT22;4268;52.506;13.462;2024-01-30T15:28:10;8.10;99.90
8463;DHT22;4268;52.506;13.462;2024-01-30T15:30:36;8.10;99.90
8463;DHT22;4268;52.506;13.462;2024-01-30T15:33:01;8.10;99.90
8463;DHT22;4268;52.506;13.462;2024-01-30T15:35:27;8.00;99.90
8463;DHT22;4268;52.506;13.462;2024-01-30T15:37:52;8.00;99.90
8463;DHT22;4268;52.506;13.462;2024-01-30T15:40:18;8.00;99.90
8463;DHT22;4268;52.506;13.462;2024-01-30T15:42:43;7.90;99.90
8463;DHT22;4268;52.506;13.462;2024-01-30T15:45:09;7.90;99.90
8463;DHT22;4268;52.506;13.462;2024-01-30T15:47:35;8.00;99.90
8463;DHT22;4268;52.506;13.462;2024-01-30T15:50:02;7.90;99.90
8463;DHT22;4268;52.506;13.462;2024-01-30T15:52:28;7.80;99.90
8463;DHT22;4268;52.506;13.462;2024-01-30T15:54:53;7.80;99.90